sensor_id;sensor_type;location;lat;lon;timestamp;P1;durP1;ratioP1;P2;durP2;ratioP2
3095;SDS011;1558;42.700;23.360;2022-08-19T00:01:26;16.23;;;13.93;;
3095;SDS011;1558;42.700;23.360;2022-08-19T00:03:57;19.30;;;17.40;;
3095;SDS011;1558;42.700;23.360;2022-08-19T00:06:26;20.40;;;17.73;;
3095;SDS011;1558;42.700;23.360;2022-08-19T00:08:55;21.58;;;19.48;;
3095;SDS011;1558;42.700;23.360;2022-08-19T00:11:26;22.17;;;20.08;;
3095;SDS011;1558;42.700;23.360;2022-08-19T00:13:56;20.83;;;18.67;;
3095;SDS011;1558;42.700;23.360;2022-08-19T00:16:25;19.45;;;17.45;;
3095;SDS011;1558;42.700;23.360;2022-08-19T00:18:54;22.25;;;20.05;;
3095;SDS011;1558;42.700;23.360;2022-08-19T00:21:23;21.92;;;19.90;;
3095;SDS011;1558;42.700;23.360;2022-08-19T00:23:53;20.95;;;18.50;;
3095;SDS011;1558;42.700;23.360;2022-08-19T00:26:24;19.23;;;17.17;;
3095;SDS011;1558;42.700;23.360;2022-08-19T00:28:52;17.75;;;16.02;;
3095;SDS011;1558;42.700;23.360;2022-08-19T00:31:21;16.73;;;15.20;;
3095;SDS011;1558;42.700;23.360;2022-08-19T00:33:51;15.43;;;13.82;;
3095;SDS011;1558;42.700;23.360;2022-08-19T00:36:19;16.88;;;15.15;;
3095;SDS011;1558;42.700;23.360;2022-08-19T00:38:48;15.98;;;14.45;;
3095;SDS011;1558;42.700;23.360;2022-08-19T00:41:18;16.17;;;14.07;;
3095;SDS011;1558;42.700;23.360;2022-08-19T00:43:56;14.18;;;12.77;;
3095;SDS011;1558;42.700;23.360;2022-08-19T00:46:27;11.50;;;10.40;;
3095;SDS011;1558;42.700;23.360;2022-08-19T00:48:56;11.02;;;10.02;;
3095;SDS011;1558;42.700;23.360;2022-08-19T00:51:25;10.25;;;9.35;;
3095;SDS011;1558;42.700;23.360;2022-08-19T00:53:55;10.88;;;9.85;;
3095;SDS011;1558;42.700;23.360;2022-08-19T00:56:27;10.65;;;9.70;;
3095;SDS011;1558;42.700;23.360;2022-08-19T00:58:56;10.77;;;9.80;;
3095;SDS011;1558;42.700;23.360;2022-08-19T01:01:29;10.45;;;9.23;;
3095;SDS011;1558;42.700;23.360;2022-08-19T01:03:57;10.77;;;9.80;;
3095;SDS011;1558;42.700;23.360;2022-08-19T01:06:26;17.63;;;10.75;;
3095;SDS011;1558;42.700;23.360;2022-08-19T01:08:54;11.67;;;9.80;;
3095;SDS011;1558;42.700;23.360;2022-08-19T01:11:23;13.93;;;10.40;;
3095;SDS011;1558;42.700;23.360;2022-08-19T01:13:51;11.63;;;10.30;;
3095;SDS011;1558;42.700;23.360;2022-08-19T01:16:22;11.97;;;10.37;;
3095;SDS011;1558;42.700;23.360;2022-08-19T01:19:03;11.17;;;9.97;;
3095;SDS011;1558;42.700;23.360;2022-08-19T01:21:42;11.10;;;10.00;;
3095;SDS011;1558;42.700;23.360;2022-08-19T01:24:17;11.87;;;10.23;;
3095;SDS011;1558;42.700;23.360;2022-08-19T01:26:46;14.27;;;10.37;;
3095;SDS011;1558;42.700;23.360;2022-08-19T01:29:15;11.33;;;10.23;;
3095;SDS011;1558;42.700;23.360;2022-08-19T01:31:46;10.63;;;9.67;;
3095;SDS011;1558;42.700;23.360;2022-08-19T01:34:18;10.63;;;9.50;;
3095;SDS011;1558;42.700;23.360;2022-08-19T01:36:47;10.77;;;9.87;;
3095;SDS011;1558;42.700;23.360;2022-08-19T01:39:19;10.23;;;8.73;;
3095;SDS011;1558;42.700;23.360;2022-08-19T01:42:16;9.50;;;8.70;;
3095;SDS011;1558;42.700;23.360;2022-08-19T01:44:58;9.63;;;8.73;;
3095;SDS011;1558;42.700;23.360;2022-08-19T01:47:37;10.03;;;9.00;;
3095;SDS011;1558;42.700;23.360;2022-08-19T01:50:27;9.70;;;8.80;;
3095;SDS011;1558;42.700;23.360;2022-08-19T01:52:58;9.90;;;9.00;;
3095;SDS011;1558;42.700;23.360;2022-08-19T01:55:35;9.80;;;9.00;;
3095;SDS011;1558;42.700;23.360;2022-08-19T01:58:20;10.53;;;8.77;;
3095;SDS011;1558;42.700;23.360;2022-08-19T02:01:10;9.50;;;8.53;;
3095;SDS011;1558;42.700;23.360;2022-08-19T02:03:39;9.10;;;8.47;;
3095;SDS011;1558;42.700;23.360;2022-08-19T02:06:25;9.20;;;8.40;;
3095;SDS011;1558;42.700;23.360;2022-08-19T02:08:54;9.77;;;8.77;;
3095;SDS011;1558;42.700;23.360;2022-08-19T02:11:41;11.97;;;9.40;;
3095;SDS011;1558;42.700;23.360;2022-08-19T02:14:37;9.63;;;8.50;;
3095;SDS011;1558;42.700;23.360;2022-08-19T02:17:05;10.03;;;9.13;;
3095;SDS011;1558;42.700;23.360;2022-08-19T02:20:04;10.13;;;8.80;;
3095;SDS011;1558;42.700;23.360;2022-08-19T02:25:24;10.37;;;9.37;;
3095;SDS011;1558;42.700;23.360;2022-08-19T02:28:01;11.97;;;9.37;;
3095;SDS011;1558;42.700;23.360;2022-08-19T02:30:52;9.80;;;8.87;;
3095;SDS011;1558;42.700;23.360;2022-08-19T02:33:28;9.97;;;8.97;;
3095;SDS011;1558;42.700;23.360;2022-08-19T02:36:23;9.10;;;8.20;;
3095;SDS011;1558;42.700;23.360;2022-08-19T02:38:58;9.90;;;9.00;;
3095;SDS011;1558;42.700;23.360;2022-08-19T02:41:32;10.10;;;9.10;;
3095;SDS011;1558;42.700;23.360;2022-08-19T02:44:09;10.33;;;9.33;;
3095;SDS011;1558;42.700;23.360;2022-08-19T02:46:56;12.47;;;11.17;;
3095;SDS011;1558;42.700;23.360;2022-08-19T02:49:35;10.40;;;9.33;;
3095;SDS011;1558;42.700;23.360;2022-08-19T02:52:04;10.57;;;9.67;;
3095;SDS011;1558;42.700;23.360;2022-08-19T02:58:12;11.03;;;10.13;;
3095;SDS011;1558;42.700;23.360;2022-08-19T03:04:10;12.27;;;10.30;;
3095;SDS011;1558;42.700;23.360;2022-08-19T03:06:55;11.17;;;10.07;;
3095;SDS011;1558;42.700;23.360;2022-08-19T03:09:36;10.80;;;9.67;;
3095;SDS011;1558;42.700;23.360;2022-08-19T03:12:20;11.23;;;9.90;;
3095;SDS011;1558;42.700;23.360;2022-08-19T03:15:11;12.17;;;10.97;;
3095;SDS011;1558;42.700;23.360;2022-08-19T03:21:43;12.67;;;11.43;;
3095;SDS011;1558;42.700;23.360;2022-08-19T03:24:16;11.47;;;10.37;;
3095;SDS011;1558;42.700;23.360;2022-08-19T03:27:05;13.23;;;10.77;;
3095;SDS011;1558;42.700;23.360;2022-08-19T03:29:42;11.73;;;10.73;;
3095;SDS011;1558;42.700;23.360;2022-08-19T03:32:20;11.37;;;10.37;;
3095;SDS011;1558;42.700;23.360;2022-08-19T03:46:12;15.23;;;11.57;;
3095;SDS011;1558;42.700;23.360;2022-08-19T03:49:10;15.27;;;11.40;;
3095;SDS011;1558;42.700;23.360;2022-08-19T03:52:05;13.00;;;11.67;;
3095;SDS011;1558;42.700;23.360;2022-08-19T03:54:48;13.70;;;11.13;;
3095;SDS011;1558;42.700;23.360;2022-08-19T03:57:25;13.33;;;10.63;;
3095;SDS011;1558;42.700;23.360;2022-08-19T03:59:59;13.03;;;11.70;;
3095;SDS011;1558;42.700;23.360;2022-08-19T04:02:58;16.37;;;11.17;;
3095;SDS011;1558;42.700;23.360;2022-08-19T04:05:34;13.57;;;11.67;;
3095;SDS011;1558;42.700;23.360;2022-08-19T04:08:04;14.80;;;11.60;;
3095;SDS011;1558;42.700;23.360;2022-08-19T04:10:40;17.50;;;11.50;;
3095;SDS011;1558;42.700;23.360;2022-08-19T04:13:16;16.37;;;12.03;;
3095;SDS011;1558;42.700;23.360;2022-08-19T04:15:48;13.90;;;12.47;;
3095;SDS011;1558;42.700;23.360;2022-08-19T04:18:21;15.77;;;11.80;;
3095;SDS011;1558;42.700;23.360;2022-08-19T04:20:50;18.37;;;13.53;;
3095;SDS011;1558;42.700;23.360;2022-08-19T04:23:19;21.00;;;13.83;;
3095;SDS011;1558;42.700;23.360;2022-08-19T04:25:49;19.63;;;13.27;;
3095;SDS011;1558;42.700;23.360;2022-08-19T04:28:18;23.07;;;14.00;;
3095;SDS011;1558;42.700;23.360;2022-08-19T04:30:56;14.27;;;11.80;;
3095;SDS011;1558;42.700;23.360;2022-08-19T04:33:25;13.70;;;11.90;;
3095;SDS011;1558;42.700;23.360;2022-08-19T04:35:54;12.40;;;10.70;;
3095;SDS011;1558;42.700;23.360;2022-08-19T04:38:24;12.07;;;10.77;;
3095;SDS011;1558;42.700;23.360;2022-08-19T04:40:57;12.25;;;11.15;;
3095;SDS011;1558;42.700;23.360;2022-08-19T04:43:50;12.20;;;11.07;;
3095;SDS011;1558;42.700;23.360;2022-08-19T04:46:21;12.05;;;10.85;;
3095;SDS011;1558;42.700;23.360;2022-08-19T04:49:06;13.15;;;11.65;;
3095;SDS011;1558;42.700;23.360;2022-08-19T04:51:40;16.77;;;15.23;;
3095;SDS011;1558;42.700;23.360;2022-08-19T04:54:18;11.77;;;10.73;;
3095;SDS011;1558;42.700;23.360;2022-08-19T04:57:06;11.63;;;10.52;;
3095;SDS011;1558;42.700;23.360;2022-08-19T05:00:03;11.95;;;10.95;;
3095;SDS011;1558;42.700;23.360;2022-08-19T05:02:34;11.48;;;10.35;;
3095;SDS011;1558;42.700;23.360;2022-08-19T05:05:06;11.45;;;10.30;;
3095;SDS011;1558;42.700;23.360;2022-08-19T05:07:36;11.63;;;10.50;;
3095;SDS011;1558;42.700;23.360;2022-08-19T05:10:14;13.45;;;11.50;;
3095;SDS011;1558;42.700;23.360;2022-08-19T05:12:54;12.02;;;10.38;;
3095;SDS011;1558;42.700;23.360;2022-08-19T05:16:38;13.50;;;11.27;;
3095;SDS011;1558;42.700;23.360;2022-08-19T05:18:37;12.55;;;11.30;;
3095;SDS011;1558;42.700;23.360;2022-08-19T05:21:43;12.32;;;11.10;;
3095;SDS011;1558;42.700;23.360;2022-08-19T05:24:37;11.98;;;10.88;;
3095;SDS011;1558;42.700;23.360;2022-08-19T05:27:40;11.88;;;10.73;;
3095;SDS011;1558;42.700;23.360;2022-08-19T05:30:34;11.35;;;10.45;;
3095;SDS011;1558;42.700;23.360;2022-08-19T05:33:16;11.85;;;10.80;;
3095;SDS011;1558;42.700;23.360;2022-08-19T05:35:52;11.80;;;10.75;;
3095;SDS011;1558;42.700;23.360;2022-08-19T05:38:41;11.65;;;10.45;;
3095;SDS011;1558;42.700;23.360;2022-08-19T05:41:14;12.55;;;11.48;;
3095;SDS011;1558;42.700;23.360;2022-08-19T05:43:46;12.38;;;10.80;;
3095;SDS011;1558;42.700;23.360;2022-08-19T05:46:19;12.93;;;11.68;;
3095;SDS011;1558;42.700;23.360;2022-08-19T05:49:23;13.15;;;11.80;;
3095;SDS011;1558;42.700;23.360;2022-08-19T05:52:01;15.45;;;12.07;;
3095;SDS011;1558;42.700;23.360;2022-08-19T05:54:47;13.20;;;11.90;;
3095;SDS011;1558;42.700;23.360;2022-08-19T05:57:48;13.15;;;12.15;;
3095;SDS011;1558;42.700;23.360;2022-08-19T06:00:31;15.45;;;13.82;;
3095;SDS011;1558;42.700;23.360;2022-08-19T06:05:53;17.27;;;11.20;;
3095;SDS011;1558;42.700;23.360;2022-08-19T06:08:32;16.38;;;13.43;;
3095;SDS011;1558;42.700;23.360;2022-08-19T06:11:21;17.08;;;13.05;;
3095;SDS011;1558;42.700;23.360;2022-08-19T06:14:16;12.10;;;10.90;;
3095;SDS011;1558;42.700;23.360;2022-08-19T06:17:26;20.05;;;14.43;;
3095;SDS011;1558;42.700;23.360;2022-08-19T06:19:58;19.70;;;14.65;;
3095;SDS011;1558;42.700;23.360;2022-08-19T06:22:30;12.57;;;11.40;;
3095;SDS011;1558;42.700;23.360;2022-08-19T06:24:58;12.43;;;11.20;;
3095;SDS011;1558;42.700;23.360;2022-08-19T06:27:26;12.70;;;11.10;;
3095;SDS011;1558;42.700;23.360;2022-08-19T06:29:57;12.30;;;11.18;;
3095;SDS011;1558;42.700;23.360;2022-08-19T06:32:25;13.00;;;11.73;;
3095;SDS011;1558;42.700;23.360;2022-08-19T06:34:56;13.00;;;11.75;;
3095;SDS011;1558;42.700;23.360;2022-08-19T06:37:25;13.57;;;10.85;;
3095;SDS011;1558;42.700;23.360;2022-08-19T06:39:54;14.02;;;10.55;;
3095;SDS011;1558;42.700;23.360;2022-08-19T06:42:22;12.80;;;10.60;;
3095;SDS011;1558;42.700;23.360;2022-08-19T06:44:50;11.20;;;10.10;;
3095;SDS011;1558;42.700;23.360;2022-08-19T06:47:21;11.27;;;10.00;;
3095;SDS011;1558;42.700;23.360;2022-08-19T06:49:54;10.07;;;9.18;;
3095;SDS011;1558;42.700;23.360;2022-08-19T06:52:28;10.80;;;9.73;;
3095;SDS011;1558;42.700;23.360;2022-08-19T06:54:59;12.27;;;9.55;;
3095;SDS011;1558;42.700;23.360;2022-08-19T06:57:32;10.05;;;9.02;;
3095;SDS011;1558;42.700;23.360;2022-08-19T07:00:00;11.68;;;9.60;;
3095;SDS011;1558;42.700;23.360;2022-08-19T07:02:31;13.40;;;9.77;;
3095;SDS011;1558;42.700;23.360;2022-08-19T07:05:04;9.70;;;8.80;;
3095;SDS011;1558;42.700;23.360;2022-08-19T07:07:37;11.27;;;10.30;;
3095;SDS011;1558;42.700;23.360;2022-08-19T07:10:08;11.05;;;9.55;;
3095;SDS011;1558;42.700;23.360;2022-08-19T07:12:37;10.35;;;9.18;;
3095;SDS011;1558;42.700;23.360;2022-08-19T07:15:07;9.88;;;8.90;;
3095;SDS011;1558;42.700;23.360;2022-08-19T07:17:37;10.68;;;9.73;;
3095;SDS011;1558;42.700;23.360;2022-08-19T07:20:08;9.75;;;8.90;;
3095;SDS011;1558;42.700;23.360;2022-08-19T07:22:38;10.73;;;9.30;;
3095;SDS011;1558;42.700;23.360;2022-08-19T07:25:08;10.30;;;9.25;;
3095;SDS011;1558;42.700;23.360;2022-08-19T07:27:37;9.13;;;8.27;;
3095;SDS011;1558;42.700;23.360;2022-08-19T07:30:06;12.63;;;8.70;;
3095;SDS011;1558;42.700;23.360;2022-08-19T07:32:37;10.18;;;9.20;;
3095;SDS011;1558;42.700;23.360;2022-08-19T07:35:06;10.30;;;9.20;;
3095;SDS011;1558;42.700;23.360;2022-08-19T07:37:35;10.02;;;9.25;;
3095;SDS011;1558;42.700;23.360;2022-08-19T07:40:10;12.48;;;8.70;;
3095;SDS011;1558;42.700;23.360;2022-08-19T07:42:39;10.13;;;9.13;;
3095;SDS011;1558;42.700;23.360;2022-08-19T07:45:09;10.23;;;8.60;;
3095;SDS011;1558;42.700;23.360;2022-08-19T07:47:37;9.68;;;8.88;;
3095;SDS011;1558;42.700;23.360;2022-08-19T07:50:16;9.70;;;8.10;;
3095;SDS011;1558;42.700;23.360;2022-08-19T07:52:47;10.52;;;8.60;;
3095;SDS011;1558;42.700;23.360;2022-08-19T07:55:17;11.45;;;9.23;;
3095;SDS011;1558;42.700;23.360;2022-08-19T07:58:07;9.70;;;8.80;;
3095;SDS011;1558;42.700;23.360;2022-08-19T08:00:36;12.02;;;9.80;;
3095;SDS011;1558;42.700;23.360;2022-08-19T08:03:05;9.98;;;9.15;;
3095;SDS011;1558;42.700;23.360;2022-08-19T08:05:37;9.25;;;8.55;;
3095;SDS011;1558;42.700;23.360;2022-08-19T08:08:26;11.15;;;10.00;;
3095;SDS011;1558;42.700;23.360;2022-08-19T08:11:14;9.23;;;8.50;;
3095;SDS011;1558;42.700;23.360;2022-08-19T08:13:46;11.75;;;8.68;;
3095;SDS011;1558;42.700;23.360;2022-08-19T08:16:27;9.30;;;8.45;;
3095;SDS011;1558;42.700;23.360;2022-08-19T08:18:58;14.32;;;9.32;;
3095;SDS011;1558;42.700;23.360;2022-08-19T08:21:26;9.05;;;8.20;;
3095;SDS011;1558;42.700;23.360;2022-08-19T08:23:57;9.65;;;8.75;;
3095;SDS011;1558;42.700;23.360;2022-08-19T08:26:30;10.95;;;8.50;;
3095;SDS011;1558;42.700;23.360;2022-08-19T08:28:59;10.25;;;9.35;;
3095;SDS011;1558;42.700;23.360;2022-08-19T08:31:38;13.68;;;9.30;;
3095;SDS011;1558;42.700;23.360;2022-08-19T08:34:08;11.18;;;10.13;;
3095;SDS011;1558;42.700;23.360;2022-08-19T08:36:39;11.00;;;9.95;;
3095;SDS011;1558;42.700;23.360;2022-08-19T08:39:13;9.07;;;8.38;;
3095;SDS011;1558;42.700;23.360;2022-08-19T08:41:45;10.27;;;9.38;;
3095;SDS011;1558;42.700;23.360;2022-08-19T08:44:23;10.05;;;9.00;;
3095;SDS011;1558;42.700;23.360;2022-08-19T08:47:09;12.45;;;8.73;;
3095;SDS011;1558;42.700;23.360;2022-08-19T08:49:41;9.93;;;8.98;;
3095;SDS011;1558;42.700;23.360;2022-08-19T08:52:18;11.95;;;9.52;;
3095;SDS011;1558;42.700;23.360;2022-08-19T08:54:52;11.23;;;9.20;;
3095;SDS011;1558;42.700;23.360;2022-08-19T08:57:25;9.30;;;8.52;;
3095;SDS011;1558;42.700;23.360;2022-08-19T09:00:06;9.90;;;9.07;;
3095;SDS011;1558;42.700;23.360;2022-08-19T09:02:41;10.07;;;9.05;;
3095;SDS011;1558;42.700;23.360;2022-08-19T09:05:09;9.95;;;8.80;;
3095;SDS011;1558;42.700;23.360;2022-08-19T09:07:44;8.27;;;7.60;;
3095;SDS011;1558;42.700;23.360;2022-08-19T09:10:25;8.98;;;8.27;;
3095;SDS011;1558;42.700;23.360;2022-08-19T09:13:10;8.45;;;7.60;;
3095;SDS011;1558;42.700;23.360;2022-08-19T09:15:50;8.57;;;7.80;;
3095;SDS011;1558;42.700;23.360;2022-08-19T09:18:22;8.38;;;7.55;;
3095;SDS011;1558;42.700;23.360;2022-08-19T09:20:55;11.25;;;7.97;;
3095;SDS011;1558;42.700;23.360;2022-08-19T09:23:23;8.10;;;7.10;;
3095;SDS011;1558;42.700;23.360;2022-08-19T09:25:53;8.48;;;7.68;;
3095;SDS011;1558;42.700;23.360;2022-08-19T09:28:23;7.72;;;7.03;;
3095;SDS011;1558;42.700;23.360;2022-08-19T09:30:52;8.45;;;6.82;;
3095;SDS011;1558;42.700;23.360;2022-08-19T09:33:20;9.77;;;8.77;;
3095;SDS011;1558;42.700;23.360;2022-08-19T09:36:00;10.63;;;9.30;;
3095;SDS011;1558;42.700;23.360;2022-08-19T09:38:34;7.47;;;6.88;;
3095;SDS011;1558;42.700;23.360;2022-08-19T09:41:11;7.50;;;6.88;;
3095;SDS011;1558;42.700;23.360;2022-08-19T09:43:41;7.88;;;6.95;;
3095;SDS011;1558;42.700;23.360;2022-08-19T09:46:13;6.95;;;6.45;;
3095;SDS011;1558;42.700;23.360;2022-08-19T09:48:43;6.15;;;5.75;;
3095;SDS011;1558;42.700;23.360;2022-08-19T09:51:15;6.53;;;6.03;;
3095;SDS011;1558;42.700;23.360;2022-08-19T09:53:48;7.40;;;6.53;;
3095;SDS011;1558;42.700;23.360;2022-08-19T09:56:19;6.50;;;6.05;;
3095;SDS011;1558;42.700;23.360;2022-08-19T09:58:50;6.88;;;6.47;;
3095;SDS011;1558;42.700;23.360;2022-08-19T10:01:19;7.20;;;6.60;;
3095;SDS011;1558;42.700;23.360;2022-08-19T10:03:50;6.45;;;5.95;;
3095;SDS011;1558;42.700;23.360;2022-08-19T10:06:20;6.85;;;6.10;;
3095;SDS011;1558;42.700;23.360;2022-08-19T10:09:10;6.30;;;5.80;;
3095;SDS011;1558;42.700;23.360;2022-08-19T10:11:40;7.90;;;6.90;;
3095;SDS011;1558;42.700;23.360;2022-08-19T10:14:20;7.40;;;6.72;;
3095;SDS011;1558;42.700;23.360;2022-08-19T10:16:50;7.07;;;6.57;;
3095;SDS011;1558;42.700;23.360;2022-08-19T10:19:19;7.40;;;6.40;;
3095;SDS011;1558;42.700;23.360;2022-08-19T10:21:51;6.85;;;6.35;;
3095;SDS011;1558;42.700;23.360;2022-08-19T10:24:26;8.77;;;7.97;;
3095;SDS011;1558;42.700;23.360;2022-08-19T10:26:56;7.38;;;6.65;;
3095;SDS011;1558;42.700;23.360;2022-08-19T10:29:25;7.90;;;6.80;;
3095;SDS011;1558;42.700;23.360;2022-08-19T10:31:58;7.47;;;6.78;;
3095;SDS011;1558;42.700;23.360;2022-08-19T10:34:28;7.50;;;6.75;;
3095;SDS011;1558;42.700;23.360;2022-08-19T10:36:57;7.85;;;6.97;;
3095;SDS011;1558;42.700;23.360;2022-08-19T10:39:28;8.02;;;7.32;;
3095;SDS011;1558;42.700;23.360;2022-08-19T10:42:03;7.50;;;6.97;;
3095;SDS011;1558;42.700;23.360;2022-08-19T10:44:32;8.23;;;7.50;;
3095;SDS011;1558;42.700;23.360;2022-08-19T10:47:01;7.72;;;7.13;;
3095;SDS011;1558;42.700;23.360;2022-08-19T10:49:43;7.65;;;6.93;;
3095;SDS011;1558;42.700;23.360;2022-08-19T10:52:31;7.68;;;7.20;;
3095;SDS011;1558;42.700;23.360;2022-08-19T10:55:05;7.63;;;6.93;;
3095;SDS011;1558;42.700;23.360;2022-08-19T10:57:56;7.53;;;6.82;;
3095;SDS011;1558;42.700;23.360;2022-08-19T11:00:28;7.45;;;6.93;;
3095;SDS011;1558;42.700;23.360;2022-08-19T11:02:58;7.45;;;6.88;;
3095;SDS011;1558;42.700;23.360;2022-08-19T11:05:25;8.55;;;7.20;;
3095;SDS011;1558;42.700;23.360;2022-08-19T11:07:54;8.15;;;7.55;;
3095;SDS011;1558;42.700;23.360;2022-08-19T11:10:23;8.55;;;7.85;;
3095;SDS011;1558;42.700;23.360;2022-08-19T11:12:52;8.25;;;7.50;;
3095;SDS011;1558;42.700;23.360;2022-08-19T11:15:21;8.77;;;8.10;;
3095;SDS011;1558;42.700;23.360;2022-08-19T11:17:51;8.18;;;7.38;;
3095;SDS011;1558;42.700;23.360;2022-08-19T11:20:21;8.02;;;7.25;;
3095;SDS011;1558;42.700;23.360;2022-08-19T11:22:50;7.60;;;7.00;;
3095;SDS011;1558;42.700;23.360;2022-08-19T11:25:19;7.68;;;7.18;;
3095;SDS011;1558;42.700;23.360;2022-08-19T11:27:48;8.38;;;7.65;;
3095;SDS011;1558;42.700;23.360;2022-08-19T11:30:17;8.15;;;7.30;;
3095;SDS011;1558;42.700;23.360;2022-08-19T11:32:46;7.50;;;7.00;;
3095;SDS011;1558;42.700;23.360;2022-08-19T11:35:15;12.38;;;11.55;;
3095;SDS011;1558;42.700;23.360;2022-08-19T11:37:46;7.90;;;7.20;;
3095;SDS011;1558;42.700;23.360;2022-08-19T11:40:14;8.18;;;7.47;;
3095;SDS011;1558;42.700;23.360;2022-08-19T11:42:42;8.10;;;7.38;;
3095;SDS011;1558;42.700;23.360;2022-08-19T11:45:24;7.80;;;7.15;;
3095;SDS011;1558;42.700;23.360;2022-08-19T11:47:55;7.90;;;7.40;;
3095;SDS011;1558;42.700;23.360;2022-08-19T11:50:23;8.30;;;7.50;;
3095;SDS011;1558;42.700;23.360;2022-08-19T11:52:53;8.15;;;7.45;;
3095;SDS011;1558;42.700;23.360;2022-08-19T11:55:21;8.02;;;6.63;;
3095;SDS011;1558;42.700;23.360;2022-08-19T11:57:51;8.00;;;7.40;;
3095;SDS011;1558;42.700;23.360;2022-08-19T12:00:19;7.95;;;7.25;;
3095;SDS011;1558;42.700;23.360;2022-08-19T12:02:47;7.68;;;7.07;;
3095;SDS011;1558;42.700;23.360;2022-08-19T12:05:18;7.88;;;7.15;;
3095;SDS011;1558;42.700;23.360;2022-08-19T12:07:46;8.02;;;7.30;;
3095;SDS011;1558;42.700;23.360;2022-08-19T12:10:15;7.45;;;6.97;;
3095;SDS011;1558;42.700;23.360;2022-08-19T12:12:45;8.60;;;7.88;;
3095;SDS011;1558;42.700;23.360;2022-08-19T12:15:24;8.30;;;7.80;;
3095;SDS011;1558;42.700;23.360;2022-08-19T12:18:02;8.50;;;7.88;;
3095;SDS011;1558;42.700;23.360;2022-08-19T12:20:33;8.77;;;8.13;;
3095;SDS011;1558;42.700;23.360;2022-08-19T12:23:03;8.38;;;7.55;;
3095;SDS011;1558;42.700;23.360;2022-08-19T12:25:31;7.82;;;7.13;;
3095;SDS011;1558;42.700;23.360;2022-08-19T12:28:00;8.02;;;7.32;;
3095;SDS011;1558;42.700;23.360;2022-08-19T12:30:30;9.05;;;8.40;;
3095;SDS011;1558;42.700;23.360;2022-08-19T12:32:58;8.23;;;7.55;;
3095;SDS011;1558;42.700;23.360;2022-08-19T12:35:26;8.77;;;7.85;;
3095;SDS011;1558;42.700;23.360;2022-08-19T12:37:56;9.20;;;7.72;;
3095;SDS011;1558;42.700;23.360;2022-08-19T12:40:24;8.27;;;7.57;;
3095;SDS011;1558;42.700;23.360;2022-08-19T12:42:53;8.20;;;7.50;;
3095;SDS011;1558;42.700;23.360;2022-08-19T12:45:21;11.25;;;7.55;;
3095;SDS011;1558;42.700;23.360;2022-08-19T12:47:49;9.27;;;7.22;;
3095;SDS011;1558;42.700;23.360;2022-08-19T12:50:20;10.27;;;7.70;;
3095;SDS011;1558;42.700;23.360;2022-08-19T12:52:49;8.25;;;7.35;;
3095;SDS011;1558;42.700;23.360;2022-08-19T12:55:19;10.73;;;7.78;;
3095;SDS011;1558;42.700;23.360;2022-08-19T12:57:47;8.65;;;7.10;;
3095;SDS011;1558;42.700;23.360;2022-08-19T13:00:17;8.00;;;7.38;;
3095;SDS011;1558;42.700;23.360;2022-08-19T13:02:48;10.40;;;7.55;;
3095;SDS011;1558;42.700;23.360;2022-08-19T13:05:18;7.82;;;7.22;;
3095;SDS011;1558;42.700;23.360;2022-08-19T13:07:49;8.00;;;7.28;;
3095;SDS011;1558;42.700;23.360;2022-08-19T13:10:21;7.75;;;6.97;;
3095;SDS011;1558;42.700;23.360;2022-08-19T13:12:50;10.18;;;8.90;;
3095;SDS011;1558;42.700;23.360;2022-08-19T13:15:19;8.55;;;7.95;;
3095;SDS011;1558;42.700;23.360;2022-08-19T13:17:50;8.20;;;6.95;;
3095;SDS011;1558;42.700;23.360;2022-08-19T13:20:20;8.25;;;7.25;;
3095;SDS011;1558;42.700;23.360;2022-08-19T13:22:48;7.57;;;6.97;;
3095;SDS011;1558;42.700;23.360;2022-08-19T13:25:18;8.13;;;7.50;;
3095;SDS011;1558;42.700;23.360;2022-08-19T13:27:48;7.55;;;6.95;;
3095;SDS011;1558;42.700;23.360;2022-08-19T13:30:19;8.52;;;6.80;;
3095;SDS011;1558;42.700;23.360;2022-08-19T13:33:07;7.60;;;7.10;;
3095;SDS011;1558;42.700;23.360;2022-08-19T13:35:41;7.25;;;6.47;;
3095;SDS011;1558;42.700;23.360;2022-08-19T13:38:13;7.13;;;6.45;;
3095;SDS011;1558;42.700;23.360;2022-08-19T13:40:42;7.07;;;6.40;;
3095;SDS011;1558;42.700;23.360;2022-08-19T13:43:14;7.80;;;6.97;;
3095;SDS011;1558;42.700;23.360;2022-08-19T13:45:49;9.50;;;6.78;;
3095;SDS011;1558;42.700;23.360;2022-08-19T13:48:23;7.40;;;6.75;;
3095;SDS011;1558;42.700;23.360;2022-08-19T13:50:53;7.72;;;7.03;;
3095;SDS011;1558;42.700;23.360;2022-08-19T13:53:22;7.18;;;6.63;;
3095;SDS011;1558;42.700;23.360;2022-08-19T13:55:51;8.80;;;7.70;;
3095;SDS011;1558;42.700;23.360;2022-08-19T13:58:22;7.57;;;6.90;;
3095;SDS011;1558;42.700;23.360;2022-08-19T14:00:50;8.27;;;6.95;;
3095;SDS011;1558;42.700;23.360;2022-08-19T14:03:18;8.07;;;7.28;;
3095;SDS011;1558;42.700;23.360;2022-08-19T14:05:48;9.95;;;7.35;;
3095;SDS011;1558;42.700;23.360;2022-08-19T14:08:16;8.00;;;7.20;;
3095;SDS011;1558;42.700;23.360;2022-08-19T14:10:44;7.55;;;6.95;;
3095;SDS011;1558;42.700;23.360;2022-08-19T14:13:16;10.20;;;9.23;;
3095;SDS011;1558;42.700;23.360;2022-08-19T14:15:47;7.80;;;7.20;;
3095;SDS011;1558;42.700;23.360;2022-08-19T14:18:16;10.60;;;7.57;;
3095;SDS011;1558;42.700;23.360;2022-08-19T14:20:46;7.63;;;6.93;;
3095;SDS011;1558;42.700;23.360;2022-08-19T14:23:14;9.02;;;7.00;;
3095;SDS011;1558;42.700;23.360;2022-08-19T14:25:42;8.13;;;7.30;;
3095;SDS011;1558;42.700;23.360;2022-08-19T14:28:11;8.10;;;7.30;;
3095;SDS011;1558;42.700;23.360;2022-08-19T14:30:39;10.20;;;9.40;;
3095;SDS011;1558;42.700;23.360;2022-08-19T14:33:08;9.50;;;8.63;;
3095;SDS011;1558;42.700;23.360;2022-08-19T14:35:36;8.00;;;7.20;;
3095;SDS011;1558;42.700;23.360;2022-08-19T14:38:05;8.18;;;7.32;;
3095;SDS011;1558;42.700;23.360;2022-08-19T14:40:41;8.20;;;6.78;;
3095;SDS011;1558;42.700;23.360;2022-08-19T14:43:10;8.32;;;7.38;;
3095;SDS011;1558;42.700;23.360;2022-08-19T14:45:38;8.73;;;7.88;;
3095;SDS011;1558;42.700;23.360;2022-08-19T14:48:10;8.45;;;7.13;;
3095;SDS011;1558;42.700;23.360;2022-08-19T14:50:45;8.20;;;7.35;;
3095;SDS011;1558;42.700;23.360;2022-08-19T14:53:13;7.93;;;7.13;;
3095;SDS011;1558;42.700;23.360;2022-08-19T14:55:44;7.82;;;6.97;;
3095;SDS011;1558;42.700;23.360;2022-08-19T14:58:13;7.03;;;6.53;;
3095;SDS011;1558;42.700;23.360;2022-08-19T15:00:56;7.93;;;7.13;;
3095;SDS011;1558;42.700;23.360;2022-08-19T15:03:26;7.80;;;7.07;;
3095;SDS011;1558;42.700;23.360;2022-08-19T15:05:54;7.93;;;7.32;;
3095;SDS011;1558;42.700;23.360;2022-08-19T15:08:25;7.65;;;6.95;;
3095;SDS011;1558;42.700;23.360;2022-08-19T15:10:55;7.30;;;6.70;;
3095;SDS011;1558;42.700;23.360;2022-08-19T15:13:25;8.20;;;6.68;;
3095;SDS011;1558;42.700;23.360;2022-08-19T15:15:54;7.82;;;7.05;;
3095;SDS011;1558;42.700;23.360;2022-08-19T15:18:23;7.63;;;6.85;;
3095;SDS011;1558;42.700;23.360;2022-08-19T15:20:53;7.28;;;6.68;;
3095;SDS011;1558;42.700;23.360;2022-08-19T15:23:21;10.18;;;7.50;;
3095;SDS011;1558;42.700;23.360;2022-08-19T15:25:50;7.55;;;6.95;;
3095;SDS011;1558;42.700;23.360;2022-08-19T15:28:24;8.93;;;7.10;;
3095;SDS011;1558;42.700;23.360;2022-08-19T15:30:52;7.25;;;6.65;;
3095;SDS011;1558;42.700;23.360;2022-08-19T15:33:21;7.38;;;6.68;;
3095;SDS011;1558;42.700;23.360;2022-08-19T15:35:49;9.25;;;6.90;;
3095;SDS011;1558;42.700;23.360;2022-08-19T15:38:19;7.60;;;6.90;;
3095;SDS011;1558;42.700;23.360;2022-08-19T15:40:49;7.75;;;6.57;;
3095;SDS011;1558;42.700;23.360;2022-08-19T15:43:18;7.20;;;6.60;;
3095;SDS011;1558;42.700;23.360;2022-08-19T15:45:48;7.05;;;6.38;;
3095;SDS011;1558;42.700;23.360;2022-08-19T15:48:16;7.60;;;7.00;;
3095;SDS011;1558;42.700;23.360;2022-08-19T15:50:44;8.45;;;7.65;;
3095;SDS011;1558;42.700;23.360;2022-08-19T15:53:13;9.48;;;6.40;;
3095;SDS011;1558;42.700;23.360;2022-08-19T15:55:43;8.85;;;6.53;;
3095;SDS011;1558;42.700;23.360;2022-08-19T15:58:13;7.20;;;6.60;;